createdAt,value
2023-03-02T00:00:33.823Z,56.84
2023-03-02T00:03:19.866Z,56.98
2023-03-02T00:06:05.857Z,56.79
2023-03-02T00:08:52.825Z,56.81
2023-03-02T00:11:39.216Z,56.89
2023-03-02T00:14:25.181Z,57.23
2023-03-02T00:17:10.901Z,57.44
2023-03-02T00:20:11.739Z,56.99
2023-03-02T00:22:57.734Z,57.31
2023-03-02T00:25:43.674Z,57.01
2023-03-02T00:28:29.839Z,56.98
2023-03-02T00:31:15.953Z,57.13
2023-03-02T00:34:01.782Z,56.99
2023-03-02T00:36:49.650Z,56.85
2023-03-02T00:39:35.559Z,57.14
2023-03-02T00:42:22.084Z,57.16
2023-03-02T00:45:08.848Z,57.25
2023-03-02T00:47:54.744Z,57.08
2023-03-02T00:50:41.296Z,56.95
2023-03-02T00:53:27.099Z,57.10
2023-03-02T00:56:13.288Z,57.49
2023-03-02T00:59:26.661Z,56.83
2023-03-02T01:02:29.554Z,57.21
2023-03-02T01:05:15.964Z,57.54
2023-03-02T01:08:01.988Z,57.39
2023-03-02T01:10:47.814Z,57.02
2023-03-02T01:13:33.550Z,57.49
2023-03-02T01:16:19.427Z,57.37
2023-03-02T01:19:05.221Z,57.21
2023-03-02T01:21:51.277Z,57.50
2023-03-02T01:24:37.085Z,57.28
2023-03-02T01:27:22.981Z,57.46
2023-03-02T01:30:09.801Z,57.19
2023-03-02T01:32:55.888Z,57.37
2023-03-02T01:35:41.751Z,57.80
2023-03-02T01:38:28.029Z,57.52
2023-03-02T01:41:14.450Z,57.37
2023-03-02T01:44:00.653Z,57.50
2023-03-02T01:46:46.470Z,57.78
2023-03-02T01:49:34.619Z,57.93
2023-03-02T01:52:21.228Z,57.75
2023-03-02T01:55:09.875Z,57.69
2023-03-02T01:57:56.662Z,57.75
2023-03-02T02:00:43.997Z,57.76
2023-03-02T02:03:31.716Z,57.75
2023-03-02T02:06:33.487Z,57.85
2023-03-02T02:09:21.441Z,57.24
2023-03-02T02:12:22.016Z,57.61
2023-03-02T02:15:08.164Z,57.44
2023-03-02T02:17:56.665Z,57.17
2023-03-02T02:20:46.631Z,57.77
2023-03-02T02:24:09.450Z,57.76
2023-03-02T02:26:56.839Z,57.68
2023-03-02T02:29:46.360Z,57.51
2023-03-02T02:32:37.899Z,57.50
2023-03-02T02:35:28.412Z,57.67
2023-03-02T02:38:16.570Z,57.69
2023-03-02T02:41:04.638Z,57.90
2023-03-02T02:43:54.726Z,57.48
2023-03-02T02:46:41.639Z,57.68
2023-03-02T02:49:34.298Z,57.36
2023-03-02T02:52:22.382Z,57.15
2023-03-02T02:55:14.494Z,57.42
2023-03-02T02:58:02.758Z,57.52
2023-03-02T03:00:49.069Z,57.62
2023-03-02T03:03:37.466Z,57.55
2023-03-02T03:06:38.268Z,57.30
2023-03-02T03:09:25.922Z,57.67
2023-03-02T03:12:17.383Z,57.70
2023-03-02T03:15:03.909Z,57.59
2023-03-02T03:17:57.632Z,57.57
2023-03-02T03:20:45.543Z,57.29
2023-03-02T03:23:31.910Z,57.60
2023-03-02T03:26:18.041Z,57.69
2023-03-02T03:29:05.801Z,57.91
2023-03-02T03:31:53.537Z,58.28
2023-03-02T03:34:43.087Z,57.86
2023-03-02T03:37:35.642Z,57.92
2023-03-02T03:40:21.928Z,57.81
2023-03-02T03:43:07.925Z,57.97
2023-03-02T03:45:53.898Z,57.95
2023-03-02T03:48:39.772Z,57.57
2023-03-02T03:51:26.392Z,57.98
2023-03-02T03:54:12.781Z,57.90
2023-03-02T03:57:00.832Z,57.61
2023-03-02T03:59:46.740Z,58.05
2023-03-02T04:02:33.107Z,57.81
2023-03-02T04:05:18.939Z,57.97
2023-03-02T04:08:08.789Z,58.19
2023-03-02T04:10:55.647Z,57.84
2023-03-02T04:13:41.982Z,57.59
2023-03-02T04:16:28.595Z,57.46
2023-03-02T04:19:15.272Z,57.84
2023-03-02T04:22:04.121Z,57.92
2023-03-02T04:24:51.886Z,57.79
2023-03-02T04:27:38.904Z,57.81
2023-03-02T04:30:26.564Z,57.58
2023-03-02T04:33:12.910Z,57.72
2023-03-02T04:35:58.873Z,58.02
2023-03-02T04:38:46.356Z,58.19
2023-03-02T04:41:32.293Z,57.71
2023-03-02T04:44:19.032Z,57.72
2023-03-02T04:47:05.260Z,57.79
2023-03-02T04:49:54.758Z,58.00
2023-03-02T04:52:41.010Z,57.81
2023-03-02T04:55:27.507Z,58.19
2023-03-02T04:58:13.484Z,57.59
2023-03-02T05:01:02.345Z,57.76
2023-03-02T05:03:48.846Z,57.65
2023-03-02T05:06:35.064Z,57.91
2023-03-02T05:09:27.193Z,57.98
2023-03-02T05:12:12.816Z,57.88
2023-03-02T05:14:58.750Z,58.05
2023-03-02T05:17:44.681Z,58.07
2023-03-02T05:20:31.669Z,58.18
2023-03-02T05:23:25.235Z,57.78
2023-03-02T05:26:12.006Z,58.13
2023-03-02T05:28:59.368Z,58.05
2023-03-02T05:31:46.409Z,58.14
2023-03-02T05:34:32.492Z,58.15
2023-03-02T05:37:19.217Z,58.36
2023-03-02T05:40:06.599Z,57.90
2023-03-02T05:42:52.599Z,58.03
2023-03-02T05:45:39.047Z,58.17
2023-03-02T05:48:24.858Z,58.32
2023-03-02T05:51:10.849Z,57.95
2023-03-02T05:53:56.893Z,58.20
2023-03-02T05:56:42.735Z,58.06
2023-03-02T05:59:28.683Z,57.89
2023-03-02T06:02:14.567Z,58.10
2023-03-02T06:05:00.368Z,58.31
2023-03-02T06:07:46.652Z,57.89
2023-03-02T06:10:33.235Z,57.92
2023-03-02T06:13:19.146Z,57.99
2023-03-02T06:16:05.588Z,58.37
2023-03-02T06:18:51.374Z,58.52
2023-03-02T06:21:37.436Z,58.03
2023-03-02T06:24:24.329Z,58.44
2023-03-02T06:27:10.566Z,58.37
2023-03-02T06:29:56.468Z,58.25
2023-03-02T06:32:42.966Z,58.28
2023-03-02T06:35:29.319Z,58.32
2023-03-02T06:38:15.312Z,58.39
2023-03-02T06:41:01.487Z,58.53
2023-03-02T06:43:49.610Z,58.52
2023-03-02T06:46:35.983Z,58.07
2023-03-02T06:49:22.157Z,58.06
2023-03-02T06:52:07.774Z,58.17
2023-03-02T06:54:54.885Z,58.26
2023-03-02T06:57:40.681Z,58.31
2023-03-02T07:00:28.230Z,58.38
2023-03-02T07:03:14.602Z,58.45
2023-03-02T07:06:00.666Z,58.50
2023-03-02T07:08:46.659Z,58.84
2023-03-02T07:11:32.766Z,58.53
2023-03-02T07:14:18.702Z,58.44
2023-03-02T07:17:05.578Z,58.49
2023-03-02T07:19:51.520Z,58.52
2023-03-02T07:22:37.605Z,58.29
2023-03-02T07:25:23.885Z,58.56
2023-03-02T07:28:10.020Z,58.50
2023-03-02T07:30:55.936Z,58.86
2023-03-02T07:33:42.402Z,58.35
2023-03-02T07:36:28.399Z,58.25
2023-03-02T07:39:14.339Z,58.53
2023-03-02T07:42:01.162Z,58.26
2023-03-02T07:44:48.069Z,58.40
2023-03-02T07:47:33.923Z,58.26
2023-03-02T07:50:20.047Z,58.12
2023-03-02T07:53:05.852Z,58.31
2023-03-02T07:55:51.648Z,58.17
2023-03-02T07:58:37.738Z,58.25
2023-03-02T08:01:23.804Z,58.37
2023-03-02T08:04:09.697Z,58.42
2023-03-02T08:06:55.472Z,58.30
2023-03-02T08:09:41.408Z,58.26
2023-03-02T08:12:28.171Z,58.29
2023-03-02T08:15:14.218Z,58.23
2023-03-02T08:18:00.229Z,58.43
2023-03-02T08:20:45.972Z,58.35
2023-03-02T08:23:31.894Z,58.48
2023-03-02T08:26:21.265Z,58.44
2023-03-02T08:29:07.328Z,58.70
2023-03-02T08:31:53.338Z,58.15
2023-03-02T08:34:39.513Z,58.09
2023-03-02T08:37:25.255Z,58.07
2023-03-02T08:40:11.684Z,57.95
2023-03-02T08:42:58.167Z,58.51
2023-03-02T08:45:43.960Z,58.46
2023-03-02T08:48:30.455Z,58.57
2023-03-02T08:51:19.433Z,58.62
2023-03-02T08:54:05.194Z,58.22
2023-03-02T08:56:50.934Z,58.58
2023-03-02T08:59:36.812Z,58.17
2023-03-02T09:02:22.582Z,58.16
2023-03-02T09:05:08.930Z,58.03
2023-03-02T09:07:54.817Z,58.72
2023-03-02T09:10:40.709Z,58.29
2023-03-02T09:13:26.593Z,58.24
2023-03-02T09:16:13.357Z,58.15
2023-03-02T09:18:59.346Z,58.83
2023-03-02T09:21:45.438Z,58.31
2023-03-02T09:24:31.475Z,58.84
2023-03-02T09:27:17.358Z,58.53
2023-03-02T09:30:03.412Z,58.39
2023-03-02T09:32:49.658Z,57.95
2023-03-02T09:35:38.630Z,58.35
2023-03-02T09:38:25.154Z,58.12
2023-03-02T09:41:20.319Z,58.27
2023-03-02T09:44:37.409Z,58.81
2023-03-02T09:47:43.724Z,58.07
2023-03-02T09:50:29.418Z,58.12
2023-03-02T09:53:31.644Z,58.23
2023-03-02T09:56:18.512Z,58.38
2023-03-02T09:59:16.103Z,58.02
2023-03-02T10:02:21.241Z,58.31
2023-03-02T10:05:19.053Z,58.53
2023-03-02T10:08:05.091Z,58.19
2023-03-02T10:11:15.857Z,57.86
2023-03-02T10:14:18.394Z,57.97
2023-03-02T10:17:23.549Z,58.15
2023-03-02T10:20:45.231Z,58.36
2023-03-02T10:23:40.179Z,58.22
2023-03-02T10:26:42.438Z,58.32
2023-03-02T10:29:46.802Z,58.01
2023-03-02T10:32:43.689Z,57.51
2023-03-02T10:35:31.722Z,57.76
2023-03-02T10:38:20.677Z,57.43
2023-03-02T10:41:08.655Z,57.64
2023-03-02T10:44:02.511Z,57.39
2023-03-02T10:46:48.311Z,57.40
2023-03-02T10:49:41.889Z,57.45
2023-03-02T10:52:29.009Z,57.42
2023-03-02T10:55:15.971Z,57.26
2023-03-02T10:58:22.483Z,57.42
2023-03-02T11:01:18.412Z,57.35
2023-03-02T11:04:04.588Z,57.15
2023-03-02T11:06:50.304Z,57.37
2023-03-02T11:09:36.319Z,57.19
2023-03-02T11:12:22.179Z,57.49
2023-03-02T11:15:25.259Z,57.25
2023-03-02T11:18:25.597Z,57.32
2023-03-02T11:21:22.296Z,57.02
2023-03-02T11:24:16.185Z,57.06
2023-03-02T11:27:06.854Z,56.90
2023-03-02T11:30:03.693Z,56.86
2023-03-02T11:32:54.171Z,57.15
2023-03-02T11:35:59.395Z,56.79
2023-03-02T11:38:51.692Z,56.58
2023-03-02T11:41:37.492Z,56.56
2023-03-02T11:44:24.845Z,56.58
2023-03-02T11:47:11.704Z,56.47
2023-03-02T11:50:02.018Z,56.59
2023-03-02T11:53:00.829Z,56.72
2023-03-02T11:55:49.522Z,56.44
2023-03-02T11:58:36.077Z,56.55
2023-03-02T12:01:24.542Z,56.54
2023-03-02T12:04:34.806Z,56.54
2023-03-02T12:07:25.862Z,56.18
2023-03-02T12:10:34.261Z,56.53
2023-03-02T12:13:23.526Z,56.63
2023-03-02T12:16:23.687Z,56.42
2023-03-02T12:19:28.315Z,55.98
2023-03-02T12:22:26.656Z,55.64
2023-03-02T12:25:18.998Z,55.50
2023-03-02T12:28:04.826Z,55.19
2023-03-02T12:31:02.775Z,55.36
2023-03-02T12:33:50.273Z,55.65
2023-03-02T12:36:42.588Z,55.57
2023-03-02T12:39:49.772Z,55.55
2023-03-02T12:42:54.150Z,55.34
2023-03-02T12:46:09.212Z,55.03
2023-03-02T12:49:15.524Z,55.77
2023-03-02T12:52:04.455Z,54.86
2023-03-02T12:55:00.051Z,55.19
2023-03-02T12:57:58.013Z,55.34
2023-03-02T13:00:53.620Z,55.19
2023-03-02T13:03:45.853Z,55.02
2023-03-02T13:06:32.681Z,54.67
2023-03-02T13:09:20.414Z,54.84
2023-03-02T13:12:13.063Z,54.65
2023-03-02T13:14:59.260Z,54.99
2023-03-02T13:17:52.437Z,54.48
2023-03-02T13:20:38.573Z,54.61
2023-03-02T13:23:25.125Z,54.46
2023-03-02T13:26:32.652Z,54.36
2023-03-02T13:29:20.654Z,54.45
2023-03-02T13:32:40.172Z,54.75
2023-03-02T13:35:29.334Z,54.36
2023-03-02T13:38:20.714Z,54.35
2023-03-02T13:41:07.156Z,54.15
2023-03-02T13:43:54.068Z,54.34
2023-03-02T13:46:42.200Z,53.99
2023-03-02T13:49:35.796Z,53.93
2023-03-02T13:52:28.385Z,54.02
2023-03-02T13:55:19.192Z,53.14
2023-03-02T13:58:10.260Z,53.54
2023-03-02T14:00:56.356Z,52.72
2023-03-02T14:03:42.412Z,52.71
2023-03-02T14:06:28.610Z,51.83
2023-03-02T14:09:14.763Z,51.62
2023-03-02T14:12:00.651Z,51.46
2023-03-02T14:14:46.743Z,51.67
2023-03-02T14:17:33.028Z,51.72
2023-03-02T14:20:20.060Z,51.91
2023-03-02T14:23:07.900Z,51.59
2023-03-02T14:25:55.975Z,50.62
2023-03-02T14:28:41.733Z,50.03
2023-03-02T14:31:27.954Z,49.75
2023-03-02T14:34:15.436Z,49.24
2023-03-02T14:37:04.798Z,48.79
2023-03-02T14:39:54.125Z,48.83
2023-03-02T14:42:40.862Z,48.24
2023-03-02T14:45:27.382Z,48.08
2023-03-02T14:48:14.199Z,47.56
2023-03-02T14:51:02.686Z,47.03
2023-03-02T14:53:50.705Z,46.93
2023-03-02T14:56:37.417Z,46.91
2023-03-02T14:59:23.448Z,46.94
2023-03-02T15:02:24.408Z,46.94
2023-03-02T15:05:11.943Z,46.95
2023-03-02T15:07:58.677Z,46.97
2023-03-02T15:10:46.931Z,47.41
2023-03-02T15:13:33.102Z,47.60
2023-03-02T15:16:19.349Z,47.76
2023-03-02T15:19:05.432Z,47.81
2023-03-02T15:21:52.996Z,48.02
2023-03-02T15:24:38.872Z,48.41
2023-03-02T15:27:25.155Z,48.55
2023-03-02T15:30:13.030Z,48.10
2023-03-02T15:33:02.168Z,48.67
2023-03-02T15:35:55.475Z,48.76
2023-03-02T15:38:41.767Z,49.31
2023-03-02T15:41:27.909Z,49.42
2023-03-02T15:44:21.958Z,49.09
2023-03-02T15:47:08.230Z,50.20
2023-03-02T15:49:54.202Z,49.69
2023-03-02T15:52:42.239Z,49.66
2023-03-02T15:55:28.194Z,49.64
2023-03-02T15:58:14.023Z,50.40
2023-03-02T16:01:00.120Z,50.82
2023-03-02T16:03:46.243Z,49.81
2023-03-02T16:06:32.612Z,50.23
2023-03-02T16:09:18.755Z,50.55
2023-03-02T16:12:04.674Z,50.48
2023-03-02T16:14:50.873Z,50.52
2023-03-02T16:17:36.909Z,50.35
2023-03-02T16:20:22.897Z,50.67
2023-03-02T16:23:09.658Z,50.88
2023-03-02T16:25:55.622Z,51.23
2023-03-02T16:28:42.532Z,50.29
2023-03-02T16:31:29.355Z,50.61
2023-03-02T16:34:15.746Z,50.67
2023-03-02T16:37:01.890Z,50.61
2023-03-02T16:39:47.718Z,50.34
2023-03-02T16:42:33.698Z,50.43
2023-03-02T16:45:21.094Z,50.23
2023-03-02T16:48:07.558Z,50.67
2023-03-02T16:50:58.091Z,50.77
2023-03-02T16:53:44.311Z,50.65
2023-03-02T16:56:30.500Z,50.19
2023-03-02T16:59:16.693Z,50.60
2023-03-02T17:02:02.384Z,50.73
2023-03-02T17:04:48.412Z,50.31
2023-03-02T17:07:34.489Z,50.27
2023-03-02T17:10:22.218Z,50.49
2023-03-02T17:13:08.767Z,50.82
2023-03-02T17:15:55.337Z,51.16
2023-03-02T17:18:41.632Z,50.42
2023-03-02T17:21:27.502Z,50.78
2023-03-02T17:24:13.914Z,51.21
2023-03-02T17:27:00.094Z,50.83
2023-03-02T17:29:46.279Z,50.91
2023-03-02T17:32:32.307Z,51.26
2023-03-02T17:35:18.412Z,51.08
2023-03-02T17:38:05.062Z,51.07
2023-03-02T17:40:53.411Z,51.21
2023-03-02T17:43:40.923Z,51.40
2023-03-02T17:46:27.883Z,51.29
2023-03-02T17:49:13.847Z,51.40
2023-03-02T17:51:59.759Z,51.15
2023-03-02T17:54:45.785Z,51.40
2023-03-02T17:57:31.654Z,51.79
2023-03-02T18:00:19.845Z,51.86
2023-03-02T18:03:06.290Z,51.23
2023-03-02T18:05:52.474Z,51.38
2023-03-02T18:08:38.765Z,51.61
2023-03-02T18:11:25.650Z,51.23
2023-03-02T18:14:14.642Z,51.44
2023-03-02T18:17:00.656Z,51.48
2023-03-02T18:19:47.507Z,51.37
2023-03-02T18:22:33.683Z,51.51
2023-03-02T18:25:19.576Z,51.29
2023-03-02T18:28:05.649Z,51.87
2023-03-02T18:30:51.787Z,51.78
2023-03-02T18:33:37.983Z,51.77
2023-03-02T18:36:23.953Z,51.70
2023-03-02T18:39:09.855Z,51.34
2023-03-02T18:41:55.835Z,51.61
2023-03-02T18:44:42.106Z,51.23
2023-03-02T18:47:28.139Z,51.67
2023-03-02T18:50:14.705Z,51.65
2023-03-02T18:53:01.005Z,52.00
2023-03-02T18:55:46.858Z,51.78
2023-03-02T18:58:34.220Z,51.70
2023-03-02T19:01:20.820Z,51.47
2023-03-02T19:04:06.756Z,51.91
2023-03-02T19:06:56.180Z,51.52
2023-03-02T19:09:42.454Z,51.94
2023-03-02T19:12:28.323Z,51.49
2023-03-02T19:15:14.389Z,51.72
2023-03-02T19:18:00.905Z,51.75
2023-03-02T19:20:48.880Z,51.89
2023-03-02T19:23:34.887Z,51.97
2023-03-02T19:26:20.892Z,51.92
2023-03-02T19:29:06.929Z,51.95
2023-03-02T19:31:53.696Z,52.00
2023-03-02T19:34:44.397Z,52.23
2023-03-02T19:37:30.439Z,51.80
2023-03-02T19:40:19.532Z,51.52
2023-03-02T19:43:06.219Z,51.82
2023-03-02T19:45:52.924Z,51.95
2023-03-02T19:48:39.311Z,51.78
2023-03-02T19:51:26.389Z,52.33
2023-03-02T19:54:13.097Z,52.31
2023-03-02T19:56:59.486Z,52.10
2023-03-02T19:59:45.433Z,52.43
2023-03-02T20:02:31.609Z,51.75
2023-03-02T20:05:17.996Z,52.40
2023-03-02T20:08:04.945Z,51.84
2023-03-02T20:11:03.956Z,52.90
2023-03-02T20:13:50.742Z,52.08
2023-03-02T20:16:39.343Z,52.38
2023-03-02T20:19:25.718Z,52.61
2023-03-02T20:22:11.746Z,52.76
2023-03-02T20:24:57.610Z,52.82
2023-03-02T20:27:43.540Z,52.64
2023-03-02T20:30:54.662Z,52.65
2023-03-02T20:33:46.727Z,53.25
2023-03-02T20:36:35.711Z,52.58
2023-03-02T20:39:26.707Z,52.91
2023-03-02T20:42:12.943Z,53.03
2023-03-02T20:44:59.428Z,52.93
2023-03-02T20:47:45.742Z,52.79
2023-03-02T20:50:33.754Z,52.95
2023-03-02T20:53:20.594Z,52.94
2023-03-02T20:56:06.943Z,52.26
2023-03-02T20:58:52.788Z,52.83
2023-03-02T21:01:38.754Z,52.66
2023-03-02T21:04:25.707Z,52.65
2023-03-02T21:07:12.585Z,52.58
2023-03-02T21:09:58.800Z,52.92
2023-03-02T21:12:45.765Z,52.67
2023-03-02T21:15:32.287Z,53.38
2023-03-02T21:18:18.098Z,53.10
2023-03-02T21:21:04.091Z,53.08
2023-03-02T21:23:50.337Z,53.26
2023-03-02T21:26:36.993Z,52.84
2023-03-02T21:29:25.094Z,53.28
2023-03-02T21:32:11.122Z,52.87
2023-03-02T21:34:56.902Z,52.82
2023-03-02T21:37:43.322Z,53.21
2023-03-02T21:40:35.161Z,53.70
2023-03-02T21:43:21.149Z,53.44
2023-03-02T21:46:07.324Z,53.29
2023-03-02T21:48:53.271Z,53.21
2023-03-02T21:51:39.126Z,53.54
2023-03-02T21:54:24.913Z,53.16
2023-03-02T21:57:11.085Z,53.62
2023-03-02T21:59:57.210Z,53.75
2023-03-02T22:02:43.197Z,53.56
2023-03-02T22:05:29.359Z,53.69
2023-03-02T22:08:18.021Z,54.00
2023-03-02T22:11:04.335Z,53.74
2023-03-02T22:13:51.383Z,53.60
2023-03-02T22:16:39.383Z,53.79
2023-03-02T22:19:28.251Z,54.05
2023-03-02T22:22:16.774Z,53.89
2023-03-02T22:25:14.442Z,54.10
2023-03-02T22:28:00.416Z,54.17
2023-03-02T22:30:46.920Z,54.03
2023-03-02T22:33:34.001Z,53.94
2023-03-02T22:36:24.280Z,53.81
2023-03-02T22:39:15.619Z,53.83
2023-03-02T22:42:14.702Z,54.41
2023-03-02T22:45:14.696Z,53.95
2023-03-02T22:48:01.223Z,54.03
2023-03-02T22:50:48.765Z,54.06
2023-03-02T22:53:39.169Z,54.15
2023-03-02T22:56:32.282Z,54.36
2023-03-02T22:59:25.341Z,54.02
2023-03-02T23:02:18.128Z,54.17
2023-03-02T23:05:23.218Z,54.27
2023-03-02T23:08:28.306Z,54.16
2023-03-02T23:11:17.599Z,54.47
2023-03-02T23:14:28.039Z,54.58
2023-03-02T23:17:19.372Z,54.53
2023-03-02T23:20:08.283Z,54.41
2023-03-02T23:22:55.130Z,54.25
2023-03-02T23:25:41.138Z,54.77
2023-03-02T23:28:27.072Z,54.24
2023-03-02T23:31:14.295Z,54.96
2023-03-02T23:34:00.288Z,54.49
2023-03-02T23:36:46.332Z,55.24
2023-03-02T23:39:32.328Z,54.77
2023-03-02T23:42:18.220Z,54.91
2023-03-02T23:45:04.912Z,54.94
2023-03-02T23:47:51.256Z,54.76
2023-03-02T23:50:37.207Z,55.15
2023-03-02T23:53:23.246Z,54.84
2023-03-02T23:56:09.180Z,54.72
2023-03-02T23:58:55.252Z,54.72
